Friday, April 20, 2018, 4:06 PM EDT
Back to Local

KMWN, Mount Washington

Location: Bretton Woods, NH, United States Lat: 44.267
Local Time: 4:06 PM EDT (20:06 GMT) Lon: -71.3
Time Zone: US/Eastern Elev: 6263 ft

Show me the last for .
Show Coded

Time T Td Feel RH Dir Speed Gust Alt SLP Vis Weather Sky Remarks
2018-04-20 15:49 16 16 -12 100 300° 61 72 - - 0 -SHSN FZFG BLSN VV000 None
2018-04-20 14:54 16 16 -12 100 300° 66 71 - - 0 -SHSN BLSN FZFG VV000 None
2018-04-20 13:47 18 18 -9 100 300° 59 69 - - 0 -SHSN BLSN FZFG VV000 6-hr Precip Total (2pm): 0.15"
Snow depth: 17"
6-hr Min Temp (2pm): 10.9°F
6-hr Max Temp (2pm): 18.1°F
2018-04-20 12:50 18 18 -7 100 310° 47 53 - - 0 FZFG BLSN VV000 None
2018-04-20 11:53 16 16 -8 100 310° 39 45 - - 0 FZFG BLSN VV000 None
2018-04-20 10:50 16 16 -9 100 320° 45 52 - - 0 -SN FZFG BLSN VV000 None
2018-04-20 09:57 14 14 -11 100 320° 38 48 - - 0 -SN FZFG BLSN VV001 None
2018-04-20 08:53 14 14 -11 100 310° 39 48 - - 0 -SN FZFG BLSN VV000 None
2018-04-20 07:48 10 10 -17 100 320° 40 52 - - 0 SN FZFG BLSN VV000 6-hr Precip Total (8am): 0.50"
24-hr Precip Total (8am): 1.04"
Snow depth: 17"
6-hr Min Temp (8am): 10.0°F
6-hr Max Temp (8am): 13.3°F
2018-04-20 06:51 10 10 -16 100 320° 40 49 - - 0 SN FZFG BLSN VV000 None
2018-04-20 05:52 10 10 -16 100 310° 40 49 - - 0 -SN FZFG BLSN VV000 None
2018-04-20 04:53 10 10 -18 100 310° 48 61 - - 0 SN FZFG BLSN VV000 None
2018-04-20 03:49 12 12 -15 100 300° 52 60 - - 0 -SN FZFG BLSN VV000 None
2018-04-20 02:50 12 12 -15 100 300° 51 59 - - 0 -SN FZFG BLSN VV000 None
2018-04-20 01:51 12 12 -14 100 290° 43 51 - - 0 SN FZFG BLSN VV000 6-hr Precip Total (2am): 0.37"
Snow depth: 15"
6-hr Min Temp (2am): 11.8°F
6-hr Max Temp (2am): 13.3°F
2018-04-20 00:50 14 14 -10 100 330° 39 46 - - 0 SN FZFG BLSN VV000 None
2018-04-19 23:50 14 14 -10 100 290° 37 44 - - 0 -SN FZFG BLSN VV000 None
2018-04-19 22:50 12 12 -13 100 300° 33 44 - - 0 -SN FZFG VV000 None
2018-04-19 21:48 14 14 -10 100 310° 35 41 - - 0 SN FZFG VV000 None
2018-04-19 20:54 12 12 -13 100 320° 31 44 - - 0 -SN FZFG VV000 None
2018-04-19 19:49 12 12 -11 100 310° 33 37 - - 0 SN FZFG VV000 6-hr Precip Total (8pm): 0.13"
Snow depth: 14"
6-hr Min Temp (8pm): 12.7°F
6-hr Max Temp (8pm): 24.8°F
2018-04-19 18:50 14 14 -8 100 290° 28 35 - - 0 -SN FZFG VV000 None
2018-04-19 17:48 19 19 0 100 290° 31 - - - 0 -SN FZFG VV001 None
2018-04-19 16:50 21 21 4 100 320° 25 - - - 0 -SN FZFG VV000 None

Support USWX by starting your Amazon purchase here.